Time;durP1;ratioP1;P1;durP2;ratioP2;P2;SDS_P1;SDS_P2;PMS_P1;PMS_P2;Temp;Humidity;BMP_temperature;BMP_pressure;BME280_temperature;BME280_humidity;BME280_pressure;Samples;Min_cycle;Max_cycle;Signal;HPM_P1;HPM_P2
2021/10/28 00:13:23;;;;;;;18.00;15.93;;;5.30;99.90;;;5.93;95.07;98530.28;5205444;28;20678;-55
2021/10/28 00:15:58;;;;;;;16.77;13.90;;;5.30;99.90;;;5.93;95.31;98531.91;5200768;28;20205;-55
2021/10/28 00:18:40;;;;;;;14.23;12.23;;;5.30;99.90;;;5.95;94.36;98527.88;5204925;28;20213;-60
2021/10/28 00:21:14;;;;;;;15.87;13.43;;;5.20;99.90;;;5.82;93.65;98521.72;5204831;28;20228;-60
2021/10/28 00:23:49;;;;;;;15.40;13.70;;;5.10;99.90;;;5.81;93.28;98530.09;5198570;28;20263;-58
2021/10/28 00:26:23;;;;;;;16.87;14.07;;;5.10;99.90;;;5.83;93.66;98526.03;5201904;28;20674;-57
2021/10/28 00:29:01;;;;;;;16.77;15.00;;;5.20;99.90;;;5.83;94.15;98522.59;5200176;28;20288;-59
2021/10/28 00:31:36;;;;;;;16.07;13.87;;;5.10;99.90;;;5.81;93.66;98517.41;5202620;28;20222;-59
2021/10/28 00:34:12;;;;;;;18.87;15.87;;;5.10;99.90;;;5.81;94.20;98519.97;5203076;28;20197;-55
2021/10/28 00:36:47;;;;;;;18.00;15.93;;;5.20;99.90;;;5.84;94.41;98519.34;5204093;28;20579;-53
2021/10/28 00:39:21;;;;;;;19.63;16.17;;;5.20;99.90;;;5.84;94.82;98510.06;5202400;28;20201;-55
2021/10/28 00:41:54;;;;;;;17.17;15.37;;;5.20;99.90;;;5.92;94.97;98520.84;5202783;28;20218;-57
2021/10/28 00:44:28;;;;;;;18.83;16.40;;;5.20;99.90;;;5.84;94.50;98520.22;5204576;28;20316;-59
2021/10/28 00:47:01;;;;;;;21.83;17.37;;;5.20;99.90;;;5.83;93.97;98512.47;5203953;28;20197;-59
2021/10/28 00:49:34;;;;;;;19.23;16.07;;;5.10;99.90;;;5.80;94.25;98513.09;5204772;28;20729;-58
2021/10/28 00:52:08;;;;;;;18.60;16.60;;;5.10;99.90;;;5.77;93.93;98512.81;5203733;28;20663;-59
2021/10/28 00:54:43;;;;;;;18.40;15.13;;;5.10;99.90;;;5.75;93.96;98514.34;5202713;28;20285;-57
2021/10/28 00:57:16;;;;;;;18.40;16.20;;;5.10;99.90;;;5.72;93.94;98509.00;5201526;28;20197;-60
2021/10/28 00:59:51;;;;;;;21.00;17.53;;;5.00;99.90;;;5.72;94.15;98509.00;5202997;28;20243;-55
2021/10/28 01:02:24;;;;;;;20.97;17.37;;;5.10;99.90;;;5.69;94.10;98508.72;5201359;28;20231;-60
2021/10/28 01:04:58;;;;;;;19.40;15.80;;;5.00;99.90;;;5.64;94.33;98515.09;5203583;28;20264;-58
2021/10/28 01:07:31;;;;;;;18.77;16.77;;;4.90;99.90;;;5.60;93.52;98513.00;5202224;28;20233;-55
2021/10/28 01:10:07;;;;;;;20.07;16.97;;;4.80;99.90;;;5.59;93.43;98511.25;5202413;28;20204;-54
2021/10/28 01:12:40;;;;;;;19.03;17.00;;;4.90;99.90;;;5.52;93.49;98503.84;5202067;28;20351;-55
2021/10/28 01:15:17;;;;;;;20.77;17.23;;;4.80;99.90;;;5.51;94.02;98509.69;5204032;28;20607;-55
2021/10/28 01:17:51;;;;;;;19.30;17.03;;;4.80;99.90;;;5.50;93.67;98506.28;5202390;28;20196;-53
2021/10/28 01:20:25;;;;;;;19.77;17.57;;;4.80;99.90;;;5.55;93.45;98505.03;5203727;28;20204;-59
2021/10/28 01:22:58;;;;;;;21.07;16.97;;;4.90;99.90;;;5.53;93.83;98510.72;5201790;28;20589;-55
2021/10/28 01:25:31;;;;;;;18.80;16.80;;;4.80;99.90;;;5.50;94.27;98505.38;5201433;28;20249;-58
2021/10/28 01:28:05;;;;;;;19.40;17.37;;;4.80;99.90;;;5.54;94.48;98505.78;5203211;28;20288;-56
2021/10/28 01:30:38;;;;;;;17.47;15.60;;;4.80;99.90;;;5.70;92.74;98502.94;5201935;28;20206;-56
2021/10/28 01:33:11;;;;;;;19.47;17.07;;;4.80;99.90;;;5.52;92.50;98498.78;5197967;28;20194;-56
2021/10/28 01:35:46;;;;;;;19.30;16.30;;;4.70;99.90;;;5.37;93.29;98498.34;5202754;28;20204;-59
2021/10/28 01:38:20;;;;;;;21.40;18.00;;;4.60;99.90;;;5.29;93.79;98495.13;5202779;28;20289;-59
2021/10/28 01:40:55;;;;;;;22.30;18.53;;;4.60;99.90;;;5.28;94.22;98498.44;5198352;28;20225;-58
2021/10/28 01:43:31;;;;;;;20.33;17.77;;;4.60;99.90;;;5.31;94.51;98493.63;5199242;28;20554;-58
2021/10/28 01:46:05;;;;;;;25.83;18.50;;;4.70;99.90;;;5.34;94.49;98486.28;5203424;28;20285;-58
2021/10/28 01:48:40;;;;;;;19.60;17.47;;;4.70;99.90;;;5.21;94.77;98486.00;5203444;28;20205;-58
2021/10/28 01:51:21;;;;;;;21.23;17.67;;;4.50;99.90;;;5.33;94.54;98482.00;5197999;28;20213;-58
2021/10/28 01:53:55;;;;;;;21.07;17.50;;;4.60;99.90;;;5.33;94.70;98482.00;5201376;28;20277;-60
2021/10/28 01:56:29;;;;;;;20.00;17.43;;;4.60;99.90;;;5.34;94.59;98482.88;5201209;28;20204;-60
2021/10/28 01:59:02;;;;;;;19.23;16.43;;;4.60;99.90;;;5.34;94.44;98482.88;5202375;28;20675;-59
2021/10/28 02:01:35;;;;;;;20.77;18.40;;;4.60;99.90;;;5.28;94.76;98480.69;5200371;28;20256;-56
2021/10/28 02:04:09;;;;;;;21.17;18.50;;;4.60;99.90;;;5.32;95.48;98481.84;5202172;28;20605;-56
2021/10/28 02:06:43;;;;;;;21.97;19.17;;;4.70;99.90;;;5.31;95.24;98475.00;5202593;28;20206;-56
2021/10/28 02:09:17;;;;;;;22.47;19.17;;;4.60;99.90;;;5.22;95.53;98477.63;5199350;28;20292;-56
2021/10/28 02:11:50;;;;;;;21.30;18.70;;;4.60;99.90;;;5.29;95.14;98479.91;5200939;28;20316;-57
2021/10/28 02:14:23;;;;;;;22.03;19.23;;;4.60;99.90;;;5.33;95.51;98470.97;5207763;28;20194;-55
2021/10/28 02:16:56;;;;;;;22.37;18.83;;;4.70;99.90;;;5.38;95.50;98475.69;5205570;28;20207;-56
2021/10/28 02:19:29;;;;;;;22.40;18.70;;;4.70;99.90;;;5.46;94.95;98477.97;5207063;28;20206;-54
2021/10/28 02:22:05;;;;;;;21.60;19.03;;;4.80;99.90;;;5.47;94.73;98474.69;5201942;28;20910;-56
2021/10/28 02:24:38;;;;;;;20.20;18.07;;;4.80;99.90;;;5.49;94.91;98471.50;5205546;28;20224;-55
2021/10/28 02:27:11;;;;;;;20.47;18.37;;;4.80;99.90;;;5.50;93.87;98470.78;5205838;28;20642;-55
2021/10/28 02:29:44;;;;;;;20.10;18.00;;;4.80;99.90;;;5.57;94.38;98472.19;5206418;28;20194;-60
2021/10/28 02:32:17;;;;;;;21.73;18.70;;;4.80;99.90;;;5.58;93.71;98479.03;5206118;28;20224;-59
2021/10/28 02:34:51;;;;;;;19.83;17.70;;;4.90;99.90;;;5.60;94.00;98478.41;5205636;28;20289;-56
2021/10/28 02:37:26;;;;;;;20.23;17.60;;;4.90;99.90;;;5.60;92.84;98480.94;5202365;28;20721;-59
2021/10/28 02:39:59;;;;;;;20.07;17.87;;;4.80;99.90;;;5.61;93.37;98479.31;5203612;28;20283;-54
2021/10/28 02:42:32;;;;;;;18.80;16.83;;;4.90;99.90;;;5.62;93.60;98476.00;5205228;28;20222;-55
2021/10/28 02:45:06;;;;;;;19.50;17.30;;;4.90;99.90;;;5.60;93.25;98474.97;5205162;28;20220;-53
2021/10/28 02:47:40;;;;;;;19.47;17.57;;;4.90;99.90;;;5.65;93.20;98466.13;5205278;28;20293;-53
2021/10/28 02:50:13;;;;;;;20.83;17.90;;;5.00;99.90;;;5.67;93.51;98468.81;5205187;28;20212;-56
2021/10/28 02:52:48;;;;;;;21.37;17.50;;;5.00;99.90;;;5.72;92.38;98468.41;5201979;28;20252;-54
2021/10/28 02:55:21;;;;;;;19.77;17.73;;;4.90;99.90;;;5.62;91.23;98474.38;5204673;28;20203;-57
2021/10/28 02:57:54;;;;;;;18.93;16.83;;;4.80;99.90;;;5.56;91.43;98471.31;5204252;28;20556;-53
2021/10/28 03:00:27;;;;;;;19.07;17.03;;;4.70;99.90;;;5.59;91.86;98466.50;5203772;28;20253;-57
2021/10/28 03:03:00;;;;;;;20.00;18.00;;;4.80;99.90;;;5.62;91.54;98465.88;5204361;28;20218;-56
2021/10/28 03:05:34;;;;;;;20.77;17.43;;;4.80;99.90;;;5.49;91.74;98453.78;5206322;28;20581;-58
2021/10/28 03:08:08;;;;;;;21.40;18.27;;;4.80;99.90;;;5.34;92.33;98453.34;5201086;28;20304;-53
2021/10/28 03:10:43;;;;;;;19.67;17.63;;;4.60;99.90;;;5.34;93.18;98458.41;5201627;28;20204;-54
2021/10/28 03:13:19;;;;;;;21.23;18.50;;;4.70;99.90;;;5.30;92.95;98461.44;5204080;28;20208;-54
2021/10/28 03:15:53;;;;;;;20.03;17.90;;;4.70;99.90;;;5.38;93.70;98459.59;5205985;28;20198;-55
2021/10/28 03:27:00;;;;;;;22.43;19.03;;;4.70;99.90;;;5.42;94.42;98457.44;5201833;28;20201;-59
2021/10/28 03:29:33;;;;;;;19.83;17.80;;;4.80;99.90;;;5.42;92.92;98454.00;5203215;28;20624;-59
2021/10/28 03:32:08;;;;;;;20.43;18.20;;;4.70;99.90;;;5.37;93.64;98457.78;5204684;28;20218;-60
2021/10/28 03:34:42;;;;;;;20.20;18.20;;;4.70;99.90;;;5.40;93.47;98456.41;5204582;28;20215;-61
2021/10/28 03:37:18;;;;;;;20.63;18.40;;;4.70;99.90;;;5.42;93.71;98456.56;5204794;28;20198;-60
2021/10/28 03:40:09;;;;;;;22.40;19.27;;;4.70;99.90;;;5.51;94.11;98456.44;5202953;28;20197;-61
2021/10/28 04:00:18;;;;;;;19.37;17.37;;;4.90;99.90;;;5.59;94.23;98465.59;5202099;28;20208;-59
2021/10/28 04:06:09;;;;;;;20.27;18.17;;;4.90;99.90;;;5.62;93.81;98461.69;5201388;28;20232;-60
2021/10/28 04:17:22;;;;;;;18.77;16.87;;;5.10;99.90;;;5.73;93.54;98460.06;5203827;28;20208;-61
2021/10/28 04:31:24;;;;;;;20.13;18.03;;;5.00;99.90;;;5.78;93.08;98458.81;5203167;28;20581;-58
2021/10/28 04:34:02;;;;;;;19.37;17.40;;;5.00;99.90;;;5.96;92.32;98453.56;5202366;28;20197;-58
2021/10/28 04:36:36;;;;;;;20.30;18.20;;;5.10;99.90;;;5.87;93.39;98449.44;5199330;28;20646;-57
2021/10/28 04:39:11;;;;;;;20.23;18.13;;;5.20;99.90;;;5.89;93.54;98441.94;5201654;28;20201;-58
2021/10/28 04:41:45;;;;;;;19.60;17.50;;;5.20;99.90;;;5.93;93.94;98440.59;5199565;28;20236;-57
2021/10/28 04:44:18;;;;;;;20.77;18.57;;;5.20;99.90;;;6.00;94.10;98440.34;5198233;28;20567;-59
2021/10/28 04:46:53;;;;;;;18.80;16.80;;;5.30;99.90;;;6.07;94.20;98442.66;5203916;28;20228;-59
2021/10/28 04:49:26;;;;;;;20.70;18.23;;;5.40;99.90;;;6.15;94.87;98434.00;5204537;28;20201;-59
2021/10/28 04:51:59;;;;;;;20.67;18.47;;;5.50;99.90;;;6.16;94.60;98432.41;5199241;28;20230;-59
2021/10/28 04:54:32;;;;;;;20.43;18.23;;;5.40;99.90;;;6.20;93.56;98435.28;5202539;28;20484;-60
2021/10/28 04:57:07;;;;;;;21.93;18.23;;;5.50;99.90;;;6.15;92.95;98440.75;5201109;28;20214;-60
2021/10/28 04:59:40;;;;;;;19.83;17.73;;;5.50;99.90;;;6.14;93.31;98433.91;5203281;28;20201;-58
2021/10/28 05:02:15;;;;;;;20.80;18.60;;;5.40;99.90;;;6.22;92.66;98431.25;5202418;28;20229;-60
2021/10/28 05:04:49;;;;;;;20.87;18.67;;;5.50;99.90;;;6.13;93.05;98427.94;5198778;28;20197;-57
2021/10/28 05:07:22;;;;;;;20.20;17.87;;;5.50;99.90;;;6.23;93.47;98422.84;5197261;28;21016;-59
2021/10/28 05:09:55;;;;;;;20.70;18.50;;;5.50;99.90;;;6.17;92.98;98424.00;5195069;28;20290;-59
2021/10/28 05:12:30;;;;;;;20.13;17.60;;;5.50;99.90;;;6.16;93.61;98428.19;5194520;28;20218;-59
2021/10/28 05:15:03;;;;;;;21.07;18.07;;;5.40;99.90;;;6.10;93.23;98427.69;5198369;28;20209;-59
2021/10/28 05:17:38;;;;;;;19.23;17.23;;;5.40;99.90;;;6.16;93.85;98420.59;5199659;28;20214;-59
2021/10/28 05:20:11;;;;;;;19.73;17.67;;;5.50;99.90;;;6.21;93.85;98416.78;5196235;28;20209;-58
2021/10/28 05:22:45;;;;;;;20.73;18.53;;;5.50;99.90;;;6.28;93.85;98413.97;5196366;28;20255;-58
2021/10/28 05:25:18;;;;;;;21.47;19.20;;;5.60;99.90;;;6.28;93.79;98406.34;5201529;28;20284;-59
2021/10/28 05:27:51;;;;;;;21.10;18.90;;;5.60;99.90;;;6.40;93.97;98408.13;5201774;28;20194;-58
2021/10/28 05:30:24;;;;;;;19.50;17.37;;;5.70;99.90;;;6.44;92.82;98410.13;5201205;28;20297;-58
2021/10/28 05:32:58;;;;;;;20.67;18.03;;;5.70;99.90;;;6.44;92.59;98405.06;5199611;28;20213;-59
2021/10/28 05:35:31;;;;;;;19.57;17.60;;;5.70;99.90;;;6.51;93.11;98402.28;5195675;28;20695;-60
2021/10/28 05:38:05;;;;;;;20.37;18.17;;;5.80;99.90;;;6.54;93.46;98405.94;5197773;28;20212;-58
2021/10/28 05:40:38;;;;;;;19.87;17.77;;;5.80;99.90;;;6.54;92.93;98397.44;5200718;28;20297;-59
2021/10/28 05:43:11;;;;;;;18.10;16.27;;;5.80;99.90;;;6.55;93.18;98401.75;5199855;28;20286;-59
2021/10/28 05:45:46;;;;;;;20.60;18.43;;;5.90;99.90;;;6.58;92.72;98403.66;5199130;28;20292;-57
2021/10/28 05:48:20;;;;;;;20.17;17.93;;;5.90;99.90;;;6.59;92.61;98403.78;5202158;28;20221;-59
2021/10/28 05:50:53;;;;;;;19.70;17.63;;;5.90;99.90;;;6.64;92.46;98404.16;5205933;28;20308;-59
2021/10/28 05:53:26;;;;;;;20.00;17.90;;;5.90;99.90;;;6.69;92.73;98406.28;5198805;28;20206;-59
2021/10/28 05:55:59;;;;;;;20.77;18.00;;;5.90;99.90;;;6.60;92.43;98402.13;5206250;28;20400;-59
2021/10/28 05:58:33;;;;;;;19.63;17.50;;;5.80;99.90;;;6.63;92.98;98410.88;5205996;28;20212;-59
2021/10/28 06:01:06;;;;;;;18.73;16.83;;;5.90;99.90;;;6.64;92.83;98414.31;5204099;28;20225;-59
2021/10/28 06:03:40;;;;;;;21.37;19.00;;;5.90;99.90;;;6.68;92.38;98407.06;5206093;28;20212;-58
2021/10/28 06:06:13;;;;;;;18.07;16.27;;;6.00;99.90;;;6.75;92.68;98409.34;5204371;28;20604;-59
2021/10/28 06:08:46;;;;;;;20.13;18.03;;;6.10;99.90;;;6.83;92.92;98392.16;5203767;28;20201;-58
2021/10/28 06:11:20;;;;;;;21.23;19.03;;;6.10;99.90;;;6.89;92.93;98392.66;5205694;28;20701;-59
2021/10/28 06:13:54;;;;;;;20.97;18.60;;;6.20;99.90;;;6.90;92.49;98401.19;5203969;28;20296;-58
2021/10/28 06:16:27;;;;;;;19.20;17.20;;;6.20;99.90;;;6.94;92.95;98400.66;5202322;28;20200;-58
2021/10/28 06:19:02;;;;;;;21.50;18.90;;;6.20;99.90;;;6.96;92.39;98400.00;5203370;28;20716;-59
2021/10/28 06:21:35;;;;;;;20.53;18.43;;;6.20;99.90;;;6.91;92.67;98401.28;5205621;28;20227;-59
2021/10/28 06:24:08;;;;;;;19.40;16.83;;;6.20;99.90;;;6.99;92.31;98400.25;5201737;28;20194;-59
2021/10/28 06:26:41;;;;;;;17.97;16.23;;;6.20;99.90;;;7.02;92.47;98404.69;5205142;28;20240;-59
2021/10/28 06:29:14;;;;;;;19.87;17.77;;;6.20;99.90;;;7.15;92.50;98398.91;5204257;28;20206;-60
2021/10/28 06:31:48;;;;;;;19.83;17.83;;;6.30;99.90;;;7.16;91.92;98393.97;5197048;28;20230;-59
2021/10/28 06:34:26;;;;;;;19.63;17.40;;;6.40;99.90;;;7.21;92.56;98400.31;5205320;28;20228;-59
2021/10/28 06:37:03;;;;;;;21.87;19.07;;;6.40;99.90;;;7.27;92.87;98404.97;5204736;28;20197;-58
2021/10/28 06:39:37;;;;;;;19.40;17.37;;;6.50;99.90;;;7.29;92.92;98408.50;5203510;28;20221;-58
2021/10/28 06:42:13;;;;;;;21.67;19.37;;;6.50;99.90;;;7.34;92.64;98408.88;5204006;28;20226;-59
2021/10/28 06:44:46;;;;;;;21.20;18.53;;;6.60;99.90;;;7.40;92.48;98406.81;5205276;28;20198;-59
2021/10/28 06:47:19;;;;;;;21.33;19.03;;;6.70;99.90;;;7.43;93.00;98410.47;5198659;28;20237;-57
2021/10/28 06:49:56;;;;;;;22.27;18.73;;;6.70;99.90;;;7.45;92.55;98408.94;5203622;28;20201;-59
2021/10/28 06:52:38;;;;;;;21.50;19.37;;;6.70;99.90;;;7.50;92.24;98416.94;5202007;28;20225;-60
2021/10/28 06:55:11;;;;;;;18.83;16.97;;;6.70;99.90;;;7.49;92.26;98415.16;5201070;28;20198;-58
2021/10/28 06:58:01;;;;;;;19.90;17.60;;;6.70;99.90;;;7.52;91.75;98405.22;5202822;28;20655;-59
2021/10/28 07:03:27;;;;;;;22.50;18.80;;;6.70;99.90;;;7.42;91.75;98400.19;5204291;28;20579;-59
2021/10/28 07:06:04;;;;;;;19.97;17.73;;;6.70;99.90;;;7.48;92.24;98398.13;5204013;28;20229;-59
2021/10/28 07:08:40;;;;;;;20.93;18.70;;;6.70;99.90;;;7.60;92.08;98391.44;5200920;28;20206;-58
2021/10/28 07:11:17;;;;;;;24.40;20.03;;;6.90;99.90;;;7.75;92.32;98389.19;5202841;28;20364;-59
2021/10/28 07:13:51;;;;;;;22.40;18.30;;;7.00;99.90;;;7.92;92.44;98397.22;5202131;28;20205;-59
2021/10/28 07:16:32;;;;;;;25.90;20.83;;;7.20;99.90;;;7.98;92.94;98393.47;5201437;28;20205;-60
2021/10/28 07:19:15;;;;;;;26.10;20.67;;;7.30;99.90;;;8.20;92.90;98395.97;5201251;28;20233;-59
2021/10/28 07:22:17;;;;;;;23.97;20.23;;;7.50;99.90;;;8.32;93.00;98398.53;5195877;28;20217;-59
2021/10/28 07:27:58;;;;;;;20.30;18.20;;;7.60;99.90;;;8.45;92.05;98403.81;5191010;28;20219;-59
2021/10/28 07:30:44;;;;;;;18.47;16.57;;;7.60;99.90;;;8.50;91.56;98402.50;5201255;28;20208;-59
2021/10/28 07:33:37;;;;;;;19.30;17.17;;;7.70;99.90;;;8.55;91.51;98395.19;5203403;28;20670;-59
2021/10/28 07:59:26;;;;;;;20.65;18.60;;;9.50;99.90;;;10.63;87.10;98382.38;5198788;28;20213;-59
2021/10/28 08:05:12;;;;;;;19.13;17.13;;;10.20;99.90;;;11.10;83.09;98382.84;5194422;28;20204;-59
2021/10/28 08:14:10;;;;;;;18.92;16.20;;;10.90;99.90;;;11.75;79.79;98374.06;5201870;28;20305;-60
2021/10/28 08:17:00;;;;;;;16.70;14.95;;;11.10;99.90;;;11.93;78.28;98370.06;5201584;28;20212;-61
2021/10/28 08:19:42;;;;;;;18.17;15.93;;;11.30;99.90;;;12.02;76.88;98372.28;5200426;28;20212;-60
2021/10/28 08:22:21;;;;;;;17.73;15.82;;;11.40;99.90;;;12.19;75.61;98376.75;5189447;28;20257;-60
2021/10/28 08:30:38;;;;;;;16.63;14.98;;;11.80;99.90;;;12.53;73.50;98369.34;5199483;28;20194;-59
2021/10/28 08:33:12;;;;;;;17.70;15.82;;;11.90;99.90;;;12.60;72.98;98363.75;5202500;28;20570;-61
2021/10/28 08:35:52;;;;;;;17.27;15.48;;;11.80;99.90;;;12.61;72.29;98355.25;5203023;28;20298;-61
2021/10/28 08:38:25;;;;;;;17.30;15.60;;;11.90;99.90;;;12.63;71.92;98357.94;5200987;28;20198;-60
2021/10/28 08:40:59;;;;;;;18.20;16.30;;;11.90;99.90;;;12.89;71.35;98349.13;5200148;28;20218;-57
2021/10/28 08:43:35;;;;;;;16.67;14.93;;;12.20;99.90;;;12.92;71.31;98330.47;5202816;28;20513;-58
2021/10/28 08:46:11;;;;;;;17.38;15.60;;;12.20;99.90;;;13.06;70.39;98340.69;5201116;28;20296;-57
2021/10/28 08:48:49;;;;;;;19.80;16.35;;;12.30;99.90;;;13.12;69.75;98332.44;5202254;28;20716;-56
2021/10/28 08:51:27;;;;;;;18.33;16.50;;;12.40;99.90;;;13.16;69.21;98329.25;5202879;28;20482;-55
2021/10/28 08:54:31;;;;;;;18.35;16.33;;;12.50;99.90;;;13.01;70.23;98323.25;5201511;28;20682;-56
2021/10/28 08:57:38;;;;;;;16.40;14.70;;;12.50;99.90;;;12.97;70.70;98323.91;5202709;28;20545;-56
2021/10/28 09:24:15;;;;;;;18.33;16.52;;;13.30;99.90;;;14.00;65.08;98304.56;5197091;28;20202;-60
2021/10/28 09:26:57;;;;;;;17.58;15.88;;;13.30;99.90;;;13.94;65.53;98300.00;5193794;28;20194;-60
2021/10/28 09:29:37;;;;;;;17.63;15.77;;;13.40;99.90;;;13.96;66.60;98297.50;5188262;28;20214;-60
2021/10/28 09:32:23;;;;;;;17.65;15.85;;;13.40;99.90;;;13.90;66.81;98298.06;5199128;28;20239;-61
2021/10/28 09:35:11;;;;;;;18.08;16.20;;;13.30;99.90;;;14.21;65.03;98294.47;5195742;28;20288;-60
2021/10/28 09:44:06;;;;;;;15.77;14.10;;;13.70;99.90;;;14.51;63.64;98289.97;5189853;28;20194;-61
2021/10/28 09:46:45;;;;;;;15.82;14.23;;;13.90;99.90;;;14.63;63.43;98287.13;5200855;28;20208;-60
2021/10/28 09:52:27;;;;;;;17.35;15.63;;;14.10;99.90;;;14.77;63.18;98283.53;5200084;28;20607;-60
2021/10/28 09:58:26;;;;;;;17.30;15.50;;;14.20;99.90;;;14.78;62.66;98284.41;5197238;28;20218;-61
2021/10/28 10:01:01;;;;;;;15.80;14.20;;;14.10;99.90;;;14.91;62.46;98283.28;5200300;28;20304;-61
2021/10/28 10:03:37;;;;;;;17.38;15.57;;;14.20;99.90;;;14.98;61.56;98277.63;5201682;28;20287;-56
2021/10/28 10:06:18;;;;;;;16.67;15.10;;;14.30;99.90;;;15.01;61.26;98288.06;5200305;28;20256;-58
2021/10/28 10:08:52;;;;;;;18.13;16.23;;;14.30;99.90;;;15.08;60.80;98287.53;5201755;28;20210;-60
2021/10/28 10:11:27;;;;;;;17.88;16.15;;;14.40;99.90;;;15.15;60.29;98287.00;5196519;28;20341;-60
2021/10/28 10:14:01;;;;;;;17.98;16.10;;;14.40;99.90;;;15.16;59.96;98286.19;5196490;28;20189;-59
2021/10/28 10:16:34;;;;;;;17.35;15.55;;;14.30;99.90;;;15.29;59.62;98291.09;5189801;28;20209;-60
2021/10/28 10:19:08;;;;;;;17.38;15.68;;;14.50;99.90;;;15.12;60.32;98285.97;5198864;28;20504;-60
2021/10/28 10:21:44;;;;;;;17.52;15.73;;;14.40;99.90;;;15.09;60.35;98282.44;5199170;28;20232;-60
2021/10/28 10:24:23;;;;;;;17.40;15.60;;;14.40;99.90;;;15.17;60.22;98287.97;5198261;28;20206;-59
2021/10/28 11:23:06;;;;;;;15.70;14.18;;;14.70;99.90;;;15.60;59.15;98220.31;5202253;28;20590;-58
2021/10/28 11:31:59;;;;;;;15.13;13.55;;;14.80;99.90;;;15.65;59.89;98213.66;5194100;28;20652;-59
2021/10/28 12:24:08;;;;;;;12.77;11.57;;;15.10;99.90;;;15.98;57.71;98146.31;5199575;28;20209;-60
2021/10/28 12:44:17;;;;;;;10.25;9.15;;;15.10;99.90;;;16.01;57.66;98128.38;5201650;28;20193;-60
2021/10/28 12:47:14;;;;;;;10.98;9.98;;;15.20;99.90;;;16.09;57.50;98124.41;5200937;28;20285;-60
2021/10/28 13:07:33;;;;;;;10.43;9.43;;;15.20;99.90;;;16.10;57.32;98108.09;5186525;28;20661;-60
2021/10/28 13:50:10;;;;;;;6.78;5.70;;;15.30;99.90;;;16.09;56.33;98067.69;5199607;28;20221;-58
2021/10/28 13:53:15;;;;;;;5.38;4.80;;;15.20;99.90;;;16.16;55.90;98064.50;5201067;28;20316;-58
2021/10/28 14:22:30;;;;;;;5.03;4.60;;;15.00;99.90;;;15.86;57.62;98050.44;5183558;28;20227;-61
2021/10/28 15:02:47;;;;;;;4.05;3.53;;;14.30;99.90;;;15.16;65.19;98046.69;5147970;28;20230;-62
2021/10/28 15:28:37;;;;;;;5.30;4.80;;;13.30;99.90;;;14.22;68.62;98039.13;5179281;28;20588;-61
2021/10/28 15:31:31;;;;;;;5.53;5.03;;;13.20;99.90;;;14.13;69.32;98038.72;5181456;28;20218;-61
2021/10/28 15:36:57;;;;;;;5.25;4.82;;;13.00;99.90;;;13.92;71.60;98034.34;5177887;28;20240;-61
2021/10/28 15:39:36;;;;;;;5.15;4.75;;;12.90;99.90;;;13.83;71.77;98028.78;5179710;28;20207;-60
2021/10/28 15:42:34;;;;;;;5.53;4.93;;;12.80;99.90;;;13.71;72.08;98025.66;5185243;28;20233;-61
2021/10/28 16:22:25;;;;;;;6.07;5.57;;;11.30;99.90;;;12.25;78.22;98028.56;5192160;28;20221;-61
2021/10/28 16:24:59;;;;;;;6.30;5.80;;;11.20;99.90;;;12.16;78.45;98033.16;5178417;28;20293;-60
2021/10/28 16:27:32;;;;;;;6.18;5.57;;;11.20;99.90;;;12.01;79.46;98033.22;5184389;28;20225;-61
2021/10/28 16:30:08;;;;;;;6.18;5.57;;;11.00;99.90;;;11.95;79.86;98030.34;5184552;28;20214;-61
2021/10/28 16:32:43;;;;;;;5.80;5.30;;;11.00;99.90;;;11.88;80.00;98035.94;5183368;28;20222;-63
2021/10/28 16:35:16;;;;;;;6.43;5.82;;;10.90;99.90;;;11.82;80.71;98025.34;5183113;28;20213;-64
2021/10/28 16:37:50;;;;;;;6.38;5.78;;;10.80;99.90;;;11.75;80.31;98029.22;5180451;28;20213;-63
2021/10/28 16:40:25;;;;;;;6.25;5.75;;;10.70;99.90;;;11.61;80.94;98025.88;5179985;28;20194;-65
2021/10/28 16:42:58;;;;;;;5.78;5.38;;;10.60;99.90;;;11.57;80.68;98026.53;5182083;28;20602;-63
2021/10/28 16:45:31;;;;;;;7.72;6.60;;;10.60;99.90;;;11.52;81.62;98024.50;5183813;28;20195;-61
2021/10/28 16:48:06;;;;;;;6.63;6.03;;;10.50;99.90;;;11.44;81.84;98034.31;5176904;28;20206;-63
2021/10/28 16:50:39;;;;;;;6.90;5.80;;;10.40;99.90;;;11.37;82.28;98029.66;5178117;28;20218;-63
2021/10/28 16:53:12;;;;;;;7.68;6.97;;;10.40;99.90;;;11.26;82.01;98035.03;5175869;28;20293;-63
2021/10/28 16:56:05;;;;;;;8.10;7.40;;;10.30;99.90;;;11.20;83.14;98037.25;5180014;28;20643;-63
2021/10/28 16:58:38;;;;;;;8.38;7.57;;;10.20;99.90;;;11.14;83.47;98044.56;5181914;28;20643;-62
2021/10/28 17:01:13;;;;;;;7.57;6.88;;;10.20;99.90;;;11.11;83.55;98046.06;5179836;28;20223;-63
2021/10/28 17:03:46;;;;;;;7.20;6.68;;;10.20;99.90;;;11.05;83.87;98041.50;5178568;28;20210;-62
2021/10/28 17:06:21;;;;;;;7.18;6.57;;;10.10;99.90;;;11.04;83.68;98044.81;5179349;28;20205;-62
2021/10/28 17:08:59;;;;;;;9.73;8.70;;;10.10;99.90;;;10.97;84.01;98048.69;5180925;28;20284;-62
2021/10/28 17:11:34;;;;;;;17.75;15.90;;;10.10;99.90;;;10.98;83.50;98047.03;5173054;28;20313;-61
2021/10/28 17:14:08;;;;;;;18.77;16.70;;;9.90;99.90;;;10.93;83.92;98048.41;5180496;28;20202;-62
2021/10/28 17:16:46;;;;;;;16.15;14.55;;;9.90;99.90;;;10.88;83.51;98047.28;5192391;28;20637;-62
2021/10/28 17:19:19;;;;;;;13.20;12.00;;;9.80;99.90;;;10.80;84.09;98049.41;5183795;28;20213;-62
2021/10/28 17:21:52;;;;;;;11.38;10.30;;;9.70;99.90;;;10.73;83.46;98048.16;5178877;28;20217;-62
2021/10/28 17:24:33;;;;;;;9.30;8.50;;;9.70;99.90;;;10.60;84.20;98050.75;5190019;28;20285;-61
2021/10/28 17:27:08;;;;;;;7.10;6.43;;;9.60;99.90;;;10.50;83.74;98048.44;5177794;28;20304;-61
2021/10/28 17:29:41;;;;;;;7.32;6.82;;;9.50;99.90;;;10.40;84.29;98041.03;5186499;28;20706;-61
2021/10/28 17:32:14;;;;;;;8.48;7.78;;;9.50;99.90;;;10.32;84.80;98054.19;5183801;28;20321;-61
2021/10/28 17:34:47;;;;;;;7.68;7.10;;;9.40;99.90;;;10.34;84.70;98047.50;5178640;28;20194;-60
2021/10/28 17:37:20;;;;;;;7.85;7.25;;;9.40;99.90;;;10.30;84.63;98044.66;5179146;28;20194;-61
2021/10/28 17:39:54;;;;;;;6.82;6.22;;;9.40;99.90;;;10.27;85.24;98040.28;5181095;28;20202;-61
2021/10/28 17:42:28;;;;;;;6.15;5.60;;;9.40;99.90;;;10.22;85.92;98039.09;5186978;28;20748;-60
2021/10/28 17:45:03;;;;;;;6.43;5.82;;;9.30;99.90;;;10.22;84.70;98046.75;5186059;28;20284;-61
2021/10/28 17:47:36;;;;;;;6.70;6.05;;;9.30;99.90;;;10.16;84.93;98046.38;5191455;28;20198;-61
2021/10/28 17:50:10;;;;;;;7.00;6.50;;;9.20;99.90;;;10.11;84.41;98047.75;5187740;28;20201;-61
2021/10/28 17:52:43;;;;;;;6.38;5.90;;;9.20;99.90;;;10.01;84.61;98046.28;5186034;28;20623;-61
2021/10/28 17:55:16;;;;;;;7.10;6.47;;;9.00;99.90;;;9.97;84.91;98049.44;5182795;28;20636;-61
2021/10/28 17:57:51;;;;;;;7.13;6.63;;;9.00;99.90;;;9.82;86.17;98043.41;5190012;28;20226;-61
2021/10/28 18:00:24;;;;;;;8.00;7.40;;;8.90;99.90;;;9.80;86.45;98050.94;5189844;28;20297;-60
2021/10/28 18:02:58;;;;;;;8.48;7.78;;;8.80;99.90;;;9.76;85.32;98049.00;5186559;28;20304;-61
2021/10/28 18:05:45;;;;;;;8.57;7.97;;;8.80;99.90;;;9.76;84.95;98051.53;5186861;28;20206;-61
2021/10/28 18:08:18;;;;;;;9.95;9.18;;;8.70;99.90;;;9.63;85.01;98054.09;5181026;28;20198;-67
2021/10/28 18:10:51;;;;;;;9.85;8.85;;;8.60;99.90;;;9.60;86.13;98057.34;5184270;28;20254;-61
2021/10/28 18:13:26;;;;;;;9.75;9.05;;;8.60;99.90;;;9.59;85.16;98049.59;5184536;28;20746;-61
2021/10/28 18:15:59;;;;;;;9.20;8.45;;;8.50;99.90;;;9.55;86.43;98057.81;5180963;28;20209;-61
2021/10/28 18:18:33;;;;;;;8.30;7.65;;;8.60;99.90;;;9.44;87.30;98052.94;5184495;28;20301;-59
2021/10/28 18:21:06;;;;;;;7.88;7.22;;;8.50;99.90;;;9.43;87.72;98050.28;5183162;28;20195;-62
2021/10/28 18:23:43;;;;;;;7.18;6.57;;;8.60;99.90;;;9.39;87.69;98051.75;5183247;28;20696;-62
2021/10/28 18:26:17;;;;;;;6.88;6.35;;;8.60;99.90;;;9.43;88.17;98048.59;5178632;28;20369;-61
2021/10/28 18:28:53;;;;;;;7.93;7.22;;;8.60;99.90;;;9.40;88.33;98053.50;5183851;28;20209;-62
2021/10/28 18:31:28;;;;;;;8.50;7.80;;;8.60;99.90;;;9.39;88.79;98050.88;5188491;28;20551;-61